createdAt,value
2018-11-11T00:01:14.829Z,36.70
2018-11-11T00:03:42.223Z,37.13
2018-11-11T00:06:09.620Z,33.73
2018-11-11T00:08:37.022Z,33.50
2018-11-11T00:11:04.426Z,34.57
2018-11-11T00:13:31.861Z,33.17
2018-11-11T00:15:59.321Z,34.53
2018-11-11T00:18:26.732Z,32.37
2018-11-11T00:20:54.123Z,33.58
2018-11-11T00:23:21.537Z,32.27
2018-11-11T00:25:48.928Z,34.27
2018-11-11T00:28:16.405Z,33.42
2018-11-11T00:30:43.816Z,32.37
2018-11-11T00:33:11.316Z,31.20
2018-11-11T00:35:38.747Z,31.23
2018-11-11T00:38:06.141Z,36.27
2018-11-11T00:40:33.540Z,39.35
2018-11-11T00:43:00.933Z,33.27
2018-11-11T00:45:28.401Z,36.77
2018-11-11T00:47:55.796Z,37.63
2018-11-11T00:50:23.191Z,34.83
2018-11-11T00:52:50.592Z,32.42
2018-11-11T00:55:17.987Z,34.60
2018-11-11T00:57:45.908Z,34.45
2018-11-11T01:00:14.562Z,32.70
2018-11-11T01:02:42.768Z,34.43
2018-11-11T01:05:11.108Z,35.83
2018-11-11T01:07:39.380Z,33.67
2018-11-11T01:10:06.785Z,32.03
2018-11-11T01:12:34.192Z,31.87
2018-11-11T01:15:01.588Z,32.90
2018-11-11T01:17:28.997Z,32.73
2018-11-11T01:19:56.452Z,33.55
2018-11-11T01:22:23.857Z,30.63
2018-11-11T01:24:51.245Z,32.83
2018-11-11T01:27:19.012Z,31.23
2018-11-11T01:29:46.365Z,30.13
2018-11-11T01:32:13.808Z,31.97
2018-11-11T01:34:41.210Z,31.13
2018-11-11T01:37:08.704Z,30.77
2018-11-11T01:39:36.105Z,31.30
2018-11-11T01:42:03.568Z,29.77
2018-11-11T01:44:31.740Z,35.10
2018-11-11T01:46:59.145Z,31.77
2018-11-11T01:49:26.606Z,33.47
2018-11-11T01:51:54.000Z,29.93
2018-11-11T01:54:21.520Z,31.90
2018-11-11T01:56:48.916Z,32.10
2018-11-11T01:59:16.320Z,34.67
2018-11-11T02:01:43.768Z,33.80
2018-11-11T02:04:11.365Z,33.75
2018-11-11T02:06:38.760Z,32.27
2018-11-11T02:09:06.161Z,32.37
2018-11-11T02:11:33.553Z,34.18
2018-11-11T02:14:00.953Z,32.17
2018-11-11T02:16:29.225Z,32.23
2018-11-11T02:18:56.718Z,32.37
2018-11-11T02:21:24.535Z,35.00
2018-11-11T02:23:51.887Z,34.77
2018-11-11T02:26:19.392Z,34.20
2018-11-11T02:28:46.915Z,35.73
2018-11-11T02:31:14.308Z,28.47
2018-11-11T02:33:41.728Z,32.47
2018-11-11T02:36:09.128Z,35.57
2018-11-11T02:38:36.535Z,30.45
2018-11-11T02:41:03.937Z,31.97
2018-11-11T02:43:31.340Z,33.92
2018-11-11T02:45:58.894Z,34.97
2018-11-11T02:48:26.300Z,37.50
2018-11-11T02:50:53.700Z,33.43
2018-11-11T02:53:21.119Z,35.00
2018-11-11T02:55:48.521Z,32.48
2018-11-11T02:58:16.032Z,37.33
2018-11-11T03:00:43.424Z,36.37
2018-11-11T03:03:10.829Z,36.43
2018-11-11T03:05:38.236Z,34.13
2018-11-11T03:08:05.635Z,36.80
2018-11-11T03:10:33.177Z,35.67
2018-11-11T03:13:00.579Z,40.03
2018-11-11T03:15:27.988Z,37.50
2018-11-11T03:17:55.395Z,35.70
2018-11-11T03:20:22.795Z,36.68
2018-11-11T03:22:50.212Z,35.37
2018-11-11T03:25:18.048Z,34.47
2018-11-11T03:27:45.450Z,34.63
2018-11-11T03:30:14.083Z,38.48
2018-11-11T03:32:41.625Z,31.20
2018-11-11T03:35:09.706Z,36.33
2018-11-11T03:37:37.220Z,32.73
2018-11-11T03:40:04.614Z,30.63
2018-11-11T03:42:32.117Z,33.40
2018-11-11T03:44:59.572Z,34.00
2018-11-11T03:47:27.037Z,33.63
2018-11-11T03:49:54.444Z,34.90
2018-11-11T03:52:21.850Z,39.63
2018-11-11T03:54:49.248Z,35.70
2018-11-11T03:57:16.656Z,35.38
2018-11-11T03:59:44.114Z,36.77
2018-11-11T04:02:11.525Z,39.43
2018-11-11T04:04:38.920Z,36.65
2018-11-11T04:07:06.589Z,36.23
2018-11-11T04:09:34.045Z,35.60
2018-11-11T04:12:01.437Z,33.87
2018-11-11T04:14:28.840Z,36.03
2018-11-11T04:16:56.232Z,35.23
2018-11-11T04:19:23.638Z,39.65
2018-11-11T04:21:51.056Z,36.60
2018-11-11T04:24:18.480Z,37.15
2018-11-11T04:26:45.916Z,37.13
2018-11-11T04:29:13.396Z,39.20
2018-11-11T04:31:40.794Z,40.13
2018-11-11T04:34:08.210Z,40.07
2018-11-11T04:36:35.604Z,37.38
2018-11-11T04:39:03.081Z,42.80
2018-11-11T04:41:30.472Z,38.97
2018-11-11T04:43:57.940Z,39.55
2018-11-11T04:46:25.405Z,41.27
2018-11-11T04:48:52.741Z,40.83
2018-11-11T04:51:20.212Z,42.07
2018-11-11T04:53:47.620Z,41.20
2018-11-11T04:56:15.141Z,45.60
2018-11-11T04:58:42.590Z,42.00
2018-11-11T05:01:10.057Z,38.33
2018-11-11T05:03:37.522Z,40.90
2018-11-11T05:06:04.952Z,41.03
2018-11-11T05:08:32.356Z,41.67
2018-11-11T05:10:59.757Z,42.20
2018-11-11T05:13:27.148Z,42.17
2018-11-11T05:15:54.580Z,40.15
2018-11-11T05:18:22.043Z,43.27
2018-11-11T05:20:49.477Z,41.57
2018-11-11T05:23:16.868Z,41.58
2018-11-11T05:25:44.271Z,43.40
2018-11-11T05:28:11.666Z,43.33
2018-11-11T05:30:39.076Z,44.47
2018-11-11T05:33:06.464Z,42.73
2018-11-11T05:35:33.864Z,47.27
2018-11-11T05:38:01.265Z,45.27
2018-11-11T05:40:28.672Z,41.18
2018-11-11T05:42:56.105Z,43.60
2018-11-11T05:45:23.512Z,45.90
2018-11-11T05:47:50.903Z,38.83
2018-11-11T05:50:18.372Z,41.30
2018-11-11T05:52:46.763Z,42.93
2018-11-11T05:55:14.377Z,39.93
2018-11-11T05:57:41.957Z,39.13
2018-11-11T06:00:10.741Z,40.17
2018-11-11T06:02:38.280Z,39.27
2018-11-11T06:05:05.784Z,36.73
2018-11-11T06:07:33.241Z,35.87
2018-11-11T06:10:00.755Z,37.47
2018-11-11T06:12:28.161Z,34.77
2018-11-11T06:14:55.616Z,39.23
2018-11-11T06:17:23.021Z,36.67
2018-11-11T06:19:50.520Z,38.03
2018-11-11T06:22:17.916Z,34.97
2018-11-11T06:24:45.357Z,34.23
2018-11-11T06:27:12.764Z,35.13
2018-11-11T06:29:40.200Z,35.57
2018-11-11T06:32:07.874Z,37.47
2018-11-11T06:34:35.444Z,36.33
2018-11-11T06:37:02.936Z,33.50
2018-11-11T06:39:30.348Z,40.43
2018-11-11T06:41:57.760Z,36.17
2018-11-11T06:44:25.213Z,38.20
2018-11-11T06:46:52.665Z,39.13
2018-11-11T06:49:20.063Z,38.63
2018-11-11T06:51:47.461Z,39.77
2018-11-11T06:54:15.456Z,38.20
2018-11-11T06:56:42.902Z,45.67
2018-11-11T06:59:10.300Z,42.30
2018-11-11T07:01:37.898Z,43.05
2018-11-11T07:04:05.305Z,45.03
2018-11-11T07:06:33.116Z,45.25
2018-11-11T07:09:00.522Z,42.73
2018-11-11T07:11:27.937Z,40.47
2018-11-11T07:13:55.394Z,44.25
2018-11-11T07:16:22.843Z,43.60
2018-11-11T07:18:50.244Z,44.80
2018-11-11T07:21:18.181Z,43.63
2018-11-11T07:23:45.927Z,44.93
2018-11-11T07:26:13.391Z,39.30
2018-11-11T07:28:40.804Z,44.23
2018-11-11T07:31:08.744Z,42.43
2018-11-11T07:33:36.139Z,49.77
2018-11-11T07:36:03.744Z,46.10
2018-11-11T07:38:31.064Z,39.90
2018-11-11T07:40:58.476Z,42.20
2018-11-11T07:43:25.924Z,44.23
2018-11-11T07:45:53.337Z,43.05
2018-11-11T07:48:21.020Z,42.07
2018-11-11T07:50:48.477Z,39.83
2018-11-11T07:53:16.020Z,41.50
2018-11-11T07:55:43.425Z,42.10
2018-11-11T07:58:10.823Z,37.97
2018-11-11T08:00:38.216Z,41.30
2018-11-11T08:03:05.650Z,41.17
2018-11-11T08:05:33.157Z,43.35
2018-11-11T08:08:00.624Z,37.43
2018-11-11T08:10:28.025Z,40.10
2018-11-11T08:12:55.424Z,40.98
2018-11-11T08:15:22.827Z,37.23
2018-11-11T08:17:50.223Z,42.15
2018-11-11T08:20:17.631Z,35.33
2018-11-11T08:22:45.045Z,40.43
2018-11-11T08:25:12.500Z,35.60
2018-11-11T08:27:40.316Z,35.90
2018-11-11T08:30:07.708Z,32.23
2018-11-11T08:32:35.185Z,40.47
2018-11-11T08:35:02.612Z,34.27
2018-11-11T08:37:30.009Z,32.83
2018-11-11T08:39:58.989Z,33.42
2018-11-11T08:42:26.403Z,28.55
2018-11-11T08:44:53.853Z,35.60
2018-11-11T08:47:21.252Z,30.15
2018-11-11T08:49:48.700Z,32.77
2018-11-11T08:52:16.120Z,33.03
2018-11-11T08:54:43.528Z,29.13
2018-11-11T08:57:10.987Z,29.97
2018-11-11T08:59:38.393Z,26.63
2018-11-11T09:02:05.803Z,30.20
2018-11-11T09:04:33.212Z,29.42
2018-11-11T09:07:00.616Z,29.30
2018-11-11T09:09:28.072Z,28.17
2018-11-11T09:11:55.537Z,29.00
2018-11-11T09:14:22.982Z,29.07
2018-11-11T09:16:50.388Z,30.02
2018-11-11T09:19:17.807Z,29.33
2018-11-11T09:21:45.225Z,27.30
2018-11-11T09:24:12.880Z,26.00
2018-11-11T09:26:40.289Z,27.00
2018-11-11T09:29:08.372Z,33.33
2018-11-11T09:31:35.911Z,28.83
2018-11-11T09:34:03.394Z,28.43
2018-11-11T09:36:30.804Z,28.57
2018-11-11T09:38:58.215Z,28.43
2018-11-11T09:41:25.636Z,29.65
2018-11-11T09:43:53.096Z,27.37
2018-11-11T09:46:20.512Z,25.80
2018-11-11T09:48:47.919Z,27.53
2018-11-11T09:51:15.372Z,29.63
2018-11-11T09:53:42.776Z,23.90
2018-11-11T09:56:10.229Z,27.03
2018-11-11T09:58:37.640Z,25.50
2018-11-11T10:01:05.045Z,25.97
2018-11-11T10:03:37.011Z,25.00
2018-11-11T10:06:09.845Z,22.63
2018-11-11T10:08:41.457Z,27.93
2018-11-11T10:11:14.665Z,24.03
2018-11-11T10:15:51.105Z,28.50
2018-11-11T10:18:26.684Z,21.67
2018-11-11T10:21:00.687Z,24.63
2018-11-11T10:23:32.553Z,25.37
2018-11-11T10:26:05.451Z,24.13
2018-11-11T10:28:37.720Z,25.97
2018-11-11T10:31:20.902Z,24.77
2018-11-11T10:34:09.133Z,28.03
2018-11-11T10:36:56.155Z,24.43
2018-11-11T10:39:27.137Z,22.90
2018-11-11T10:41:58.392Z,24.73
2018-11-11T10:44:30.697Z,25.60
2018-11-11T10:47:03.441Z,22.87
2018-11-11T10:49:33.588Z,25.87
2018-11-11T10:52:01.063Z,28.43
2018-11-11T10:54:28.544Z,22.57
2018-11-11T10:56:55.884Z,25.35
2018-11-11T10:59:23.288Z,26.23
2018-11-11T11:01:56.073Z,23.25
2018-11-11T11:04:23.488Z,22.77
2018-11-11T11:06:56.304Z,22.33
2018-11-11T11:09:23.752Z,23.00
2018-11-11T11:11:51.155Z,23.90
2018-11-11T11:14:18.564Z,21.42
2018-11-11T11:16:46.076Z,23.20
2018-11-11T11:19:13.488Z,20.30
2018-11-11T11:21:40.919Z,20.93
2018-11-11T11:24:08.340Z,20.10
2018-11-11T11:26:35.756Z,16.73
2018-11-11T11:29:03.176Z,19.30
2018-11-11T11:31:30.679Z,20.12
2018-11-11T11:33:58.012Z,21.33
2018-11-11T11:36:25.632Z,19.47
2018-11-11T11:38:53.039Z,21.37
2018-11-11T11:41:20.582Z,17.90
2018-11-11T11:43:48.047Z,19.87
2018-11-11T11:46:15.420Z,21.13
2018-11-11T11:48:42.855Z,18.97
2018-11-11T11:51:10.268Z,17.80
2018-11-11T11:53:37.681Z,18.32
2018-11-11T11:56:05.101Z,20.77
2018-11-11T11:58:32.851Z,18.98
2018-11-11T12:01:00.376Z,19.13
2018-11-11T12:03:27.794Z,20.13
2018-11-11T12:05:55.212Z,18.27
2018-11-11T12:08:22.699Z,17.40
2018-11-11T12:10:50.065Z,17.32
2018-11-11T12:13:17.976Z,17.47
2018-11-11T12:15:45.523Z,19.07
2018-11-11T12:18:12.938Z,16.83
2018-11-11T12:20:40.680Z,19.70
2018-11-11T12:23:08.410Z,18.50
2018-11-11T12:25:36.524Z,16.50
2018-11-11T12:28:03.939Z,15.47
2018-11-11T12:30:31.932Z,15.77
2018-11-11T12:32:59.408Z,15.63
2018-11-11T12:35:26.828Z,20.47
2018-11-11T12:37:54.244Z,18.53
2018-11-11T12:40:21.763Z,16.20
2018-11-11T12:42:49.077Z,17.70
2018-11-11T12:45:16.496Z,18.25
2018-11-11T12:47:43.912Z,17.20
2018-11-11T12:50:12.161Z,20.20
2018-11-11T12:52:39.761Z,20.87
2018-11-11T12:55:07.232Z,18.47
2018-11-11T12:57:34.601Z,20.55
2018-11-11T13:00:02.033Z,22.20
2018-11-11T13:02:29.485Z,18.57
2018-11-11T13:04:57.048Z,19.23
2018-11-11T13:07:24.607Z,20.92
2018-11-11T13:09:52.033Z,18.63
2018-11-11T13:12:19.514Z,20.05
2018-11-11T13:14:46.894Z,21.53
2018-11-11T13:17:14.871Z,21.00
2018-11-11T13:19:42.395Z,18.87
2018-11-11T13:22:09.869Z,20.60
2018-11-11T13:24:37.168Z,23.50
2018-11-11T13:27:04.569Z,24.27
2018-11-11T13:29:31.994Z,17.73
2018-11-11T13:31:59.447Z,18.83
2018-11-11T13:34:26.828Z,17.07
2018-11-11T13:36:54.332Z,19.00
2018-11-11T13:39:21.740Z,21.10
2018-11-11T13:41:49.152Z,20.50
2018-11-11T13:44:16.636Z,17.43
2018-11-11T13:46:44.066Z,17.23
2018-11-11T13:49:11.468Z,20.67
2018-11-11T13:51:38.988Z,18.47
2018-11-11T13:54:06.410Z,18.98
2018-11-11T13:56:33.820Z,18.10
2018-11-11T13:59:01.244Z,17.70
2018-11-11T14:01:28.728Z,15.25
2018-11-11T14:03:56.127Z,15.87
2018-11-11T14:06:23.620Z,15.03
2018-11-11T14:08:51.028Z,16.03
2018-11-11T14:11:18.432Z,16.07
2018-11-11T14:13:45.849Z,16.12
2018-11-11T14:16:13.274Z,15.03
2018-11-11T14:18:41.216Z,17.10
2018-11-11T14:21:08.461Z,14.63
2018-11-11T14:23:36.105Z,16.03
2018-11-11T14:26:03.527Z,16.10
2018-11-11T14:28:30.920Z,18.13
2018-11-11T14:30:58.432Z,15.50
2018-11-11T14:33:25.835Z,15.83
2018-11-11T14:35:53.287Z,15.27
2018-11-11T14:38:20.809Z,18.77
2018-11-11T14:40:48.316Z,16.53
2018-11-11T14:43:15.732Z,17.67
2018-11-11T14:45:43.208Z,17.60
2018-11-11T14:48:10.630Z,17.57
2018-11-11T14:50:38.039Z,18.13
2018-11-11T14:53:05.941Z,17.87
2018-11-11T14:55:33.365Z,17.60
2018-11-11T14:58:01.607Z,14.83
2018-11-11T15:00:31.446Z,18.03
2018-11-11T15:02:59.148Z,15.50
2018-11-11T15:05:26.534Z,19.15
2018-11-11T15:07:53.948Z,16.73
2018-11-11T15:10:21.414Z,17.60
2018-11-11T15:12:48.865Z,16.80
2018-11-11T15:15:17.624Z,22.93
2018-11-11T15:17:45.701Z,21.27
2018-11-11T15:20:14.289Z,19.40
2018-11-11T15:22:41.538Z,20.40
2018-11-11T15:25:10.327Z,19.63
2018-11-11T15:27:37.980Z,19.63
2018-11-11T15:30:05.396Z,18.52
2018-11-11T15:32:32.967Z,17.00
2018-11-11T15:35:00.395Z,20.23
2018-11-11T15:37:28.268Z,17.40
2018-11-11T15:39:55.713Z,18.97
2018-11-11T15:42:23.235Z,20.93
2018-11-11T15:44:50.629Z,20.73
2018-11-11T15:47:18.037Z,22.27
2018-11-11T15:49:45.553Z,18.25
2018-11-11T15:52:13.002Z,19.93
2018-11-11T15:54:40.404Z,20.72
2018-11-11T15:57:07.802Z,20.70
2018-11-11T15:59:35.348Z,18.13
2018-11-11T16:02:02.776Z,22.53
2018-11-11T16:04:30.295Z,23.30
2018-11-11T16:06:57.809Z,24.53
2018-11-11T16:09:25.241Z,23.37
2018-11-11T16:11:52.646Z,24.70
2018-11-11T16:14:20.070Z,23.90
2018-11-11T16:16:47.654Z,25.08
2018-11-11T16:19:15.138Z,21.87
2018-11-11T16:21:43.268Z,32.23
2018-11-11T16:24:10.683Z,25.20
2018-11-11T16:26:38.134Z,27.33
2018-11-11T16:29:05.558Z,24.17
2018-11-11T16:31:32.971Z,25.83
2018-11-11T16:34:00.400Z,24.02
2018-11-11T16:36:27.872Z,25.53
2018-11-11T16:38:55.415Z,25.95
2018-11-11T16:41:22.978Z,27.20
2018-11-11T16:43:50.276Z,26.37
2018-11-11T16:46:17.721Z,28.50
2018-11-11T16:48:45.157Z,29.17
2018-11-11T16:51:12.630Z,26.70
2018-11-11T16:53:40.059Z,27.13
2018-11-11T16:56:07.470Z,28.83
2018-11-11T16:58:34.872Z,29.25
2018-11-11T17:01:02.324Z,30.40
2018-11-11T17:03:29.751Z,30.97
2018-11-11T17:05:57.245Z,29.00
2018-11-11T17:08:24.657Z,31.70
2018-11-11T17:10:52.132Z,29.87
2018-11-11T17:13:19.616Z,27.87
2018-11-11T17:15:47.075Z,32.53
2018-11-11T17:18:14.537Z,32.57
2018-11-11T17:20:42.026Z,26.50
2018-11-11T17:23:09.609Z,31.57
2018-11-11T17:25:37.012Z,30.07
2018-11-11T17:28:04.522Z,29.13
2018-11-11T17:30:32.890Z,32.53
2018-11-11T17:33:01.013Z,29.20
2018-11-11T17:35:28.372Z,29.10
2018-11-11T17:37:55.827Z,28.67
2018-11-11T17:40:26.437Z,28.43
2018-11-11T17:42:54.604Z,27.10
2018-11-11T17:45:22.191Z,24.03
2018-11-11T17:47:50.212Z,27.30
2018-11-11T17:50:22.040Z,31.23
2018-11-11T17:52:49.487Z,28.47
2018-11-11T17:55:18.184Z,30.57
2018-11-11T17:57:45.795Z,25.43
2018-11-11T18:00:15.512Z,27.90
2018-11-11T18:02:43.210Z,28.77
2018-11-11T18:05:11.860Z,23.55
2018-11-11T18:07:39.281Z,25.87
2018-11-11T18:10:06.696Z,28.97
2018-11-11T18:12:34.104Z,28.70
2018-11-11T18:15:01.520Z,27.10
2018-11-11T18:17:28.976Z,25.08
2018-11-11T18:19:56.397Z,30.00
2018-11-11T18:22:23.799Z,26.07
2018-11-11T18:24:51.215Z,30.40
2018-11-11T18:27:18.649Z,27.70
2018-11-11T18:29:46.060Z,29.90
2018-11-11T18:32:13.521Z,28.53
2018-11-11T18:34:40.936Z,30.90
2018-11-11T18:37:08.432Z,28.32
2018-11-11T18:39:36.410Z,27.80
2018-11-11T18:42:03.808Z,28.00
2018-11-11T18:44:31.221Z,25.32
2018-11-11T18:46:58.645Z,30.17
2018-11-11T18:49:26.045Z,29.80
2018-11-11T18:51:53.451Z,31.45
2018-11-11T18:54:21.416Z,28.60
2018-11-11T18:56:49.005Z,29.00
2018-11-11T18:59:16.512Z,26.10
2018-11-11T19:01:43.945Z,31.27
2018-11-11T19:04:11.557Z,32.53
2018-11-11T19:06:38.961Z,30.53
2018-11-11T19:09:06.358Z,29.80
2018-11-11T19:11:33.848Z,30.07
2018-11-11T19:14:01.714Z,30.93
2018-11-11T19:16:29.125Z,33.30
2018-11-11T19:18:56.533Z,33.13
2018-11-11T19:21:23.940Z,32.53
2018-11-11T19:23:51.443Z,29.60
2018-11-11T19:26:18.822Z,31.52
2018-11-11T19:28:46.250Z,32.30
2018-11-11T19:31:13.742Z,31.73
2018-11-11T19:33:41.299Z,29.97
2018-11-11T19:36:08.572Z,32.07
2018-11-11T19:38:35.973Z,33.88
2018-11-11T19:41:03.405Z,31.83
2018-11-11T19:43:30.796Z,33.43
2018-11-11T19:45:58.272Z,35.52
2018-11-11T19:48:25.808Z,37.57
2018-11-11T19:50:53.107Z,31.52
2018-11-11T19:53:20.536Z,31.77
2018-11-11T19:55:48.011Z,34.90
2018-11-11T19:58:15.421Z,32.17
2018-11-11T20:00:42.816Z,33.77
2018-11-11T20:03:10.303Z,31.07
2018-11-11T20:05:37.697Z,35.83
2018-11-11T20:08:05.092Z,33.80
2018-11-11T20:10:32.625Z,34.45
2018-11-11T20:13:00.584Z,32.43
2018-11-11T20:15:30.194Z,33.03
2018-11-11T20:17:57.605Z,32.77
2018-11-11T20:20:26.644Z,28.83
2018-11-11T20:22:54.062Z,23.77
2018-11-11T20:25:21.961Z,29.73
2018-11-11T20:27:49.529Z,27.50
2018-11-11T20:30:19.649Z,27.17
2018-11-11T20:32:49.761Z,28.80
2018-11-11T20:35:18.775Z,30.13
2018-11-11T20:37:46.147Z,29.73
2018-11-11T20:40:14.889Z,27.60
2018-11-11T20:42:43.027Z,29.77
2018-11-11T20:45:11.244Z,26.67
2018-11-11T20:47:39.331Z,28.63
2018-11-11T20:50:06.745Z,30.03
2018-11-11T20:52:34.149Z,28.93
2018-11-11T20:55:01.629Z,28.15
2018-11-11T20:57:30.279Z,28.83
2018-11-11T20:59:57.684Z,32.57
2018-11-11T21:02:25.132Z,31.80
2018-11-11T21:04:52.591Z,30.85
2018-11-11T21:07:20.033Z,30.73
2018-11-11T21:09:47.501Z,34.53
2018-11-11T21:12:14.971Z,31.70
2018-11-11T21:14:42.355Z,30.53
2018-11-11T21:17:09.778Z,27.55
2018-11-11T21:19:37.176Z,26.23
2018-11-11T21:22:04.686Z,29.77
2018-11-11T21:24:32.148Z,29.30
2018-11-11T21:26:59.596Z,32.43
2018-11-11T21:29:27.001Z,27.60
2018-11-11T21:31:54.397Z,30.43
2018-11-11T21:34:21.797Z,28.00
2018-11-11T21:36:49.231Z,27.02
2018-11-11T21:39:16.640Z,28.20
2018-11-11T21:41:44.051Z,27.20
2018-11-11T21:44:11.493Z,25.77
2018-11-11T21:46:38.925Z,23.93
2018-11-11T21:49:06.613Z,24.37
2018-11-11T21:51:34.035Z,23.60
2018-11-11T21:54:01.437Z,24.77
2018-11-11T21:56:28.890Z,26.90
2018-11-11T21:58:56.350Z,24.07
2018-11-11T22:01:23.808Z,30.80
2018-11-11T22:03:51.222Z,25.17
2018-11-11T22:06:18.632Z,23.40
2018-11-11T22:08:46.116Z,29.15
2018-11-11T22:11:13.481Z,26.27
2018-11-11T22:13:40.989Z,23.47
2018-11-11T22:16:08.576Z,27.10
2018-11-11T22:18:35.804Z,27.63
2018-11-11T22:21:03.220Z,26.87
2018-11-11T22:23:30.632Z,28.17
2018-11-11T22:25:58.038Z,25.80
2018-11-11T22:28:25.464Z,26.82
2018-11-11T22:30:52.876Z,28.30
2018-11-11T22:33:20.288Z,30.72
2018-11-11T22:35:47.687Z,29.67
2018-11-11T22:38:15.100Z,27.37
2018-11-11T22:40:42.507Z,27.25
2018-11-11T22:43:09.940Z,27.60
2018-11-11T22:45:37.724Z,29.00
2018-11-11T22:48:05.148Z,30.43
2018-11-11T22:50:32.651Z,27.33
2018-11-11T22:53:00.064Z,29.87
2018-11-11T22:55:27.488Z,28.07
2018-11-11T22:57:54.908Z,32.08
2018-11-11T23:00:29.778Z,29.17
2018-11-11T23:02:57.228Z,30.30
2018-11-11T23:05:25.713Z,27.70
2018-11-11T23:07:53.144Z,29.27
2018-11-11T23:10:20.717Z,32.77
2018-11-11T23:12:48.148Z,30.77
2018-11-11T23:15:16.924Z,33.10
2018-11-11T23:17:44.343Z,30.40
2018-11-11T23:20:12.579Z,30.08
2018-11-11T23:22:40.416Z,29.90
2018-11-11T23:25:08.679Z,33.08
2018-11-11T23:27:36.356Z,34.97
2018-11-11T23:30:03.917Z,30.12
2018-11-11T23:32:31.328Z,32.13
2018-11-11T23:34:58.760Z,31.30
2018-11-11T23:37:26.225Z,33.27
2018-11-11T23:39:53.637Z,34.20
2018-11-11T23:42:21.056Z,38.08
2018-11-11T23:44:48.484Z,35.20
2018-11-11T23:47:15.907Z,36.68
2018-11-11T23:49:43.321Z,35.77
2018-11-11T23:52:10.756Z,34.27
2018-11-11T23:54:38.212Z,37.70
2018-11-11T23:57:05.612Z,36.97
2018-11-11T23:59:33.020Z,34.85
